createdAt,value
2023-04-19T00:06:10.578Z,11.95
2023-04-19T00:08:38.248Z,11.20
2023-04-19T00:11:05.830Z,11.70
2023-04-19T00:13:33.680Z,11.30
2023-04-19T00:16:01.421Z,11.43
2023-04-19T00:18:28.920Z,11.05
2023-04-19T00:20:57.054Z,11.57
2023-04-19T00:23:25.896Z,11.93
2023-04-19T00:25:53.601Z,11.10
2023-04-19T00:28:21.676Z,11.52
2023-04-19T00:30:50.112Z,10.80
2023-04-19T00:33:18.638Z,11.30
2023-04-19T00:35:46.062Z,10.88
2023-04-19T00:38:14.858Z,10.93
2023-04-19T00:40:50.369Z,11.40
2023-04-19T00:43:19.794Z,11.82
2023-04-19T00:45:49.485Z,11.50
2023-04-19T00:48:18.594Z,11.70
2023-04-19T00:50:48.657Z,10.65
2023-04-19T00:53:17.825Z,11.93
2023-04-19T00:55:53.556Z,11.23
2023-04-19T00:58:21.006Z,11.10
2023-04-19T01:00:49.601Z,11.23
2023-04-19T01:03:20.318Z,11.60
2023-04-19T01:05:49.499Z,11.80
2023-04-19T01:08:20.024Z,11.02
2023-04-19T01:10:49.458Z,11.32
2023-04-19T01:13:17.188Z,11.88
2023-04-19T01:15:45.121Z,12.40
2023-04-19T01:18:14.318Z,12.75
2023-04-19T01:20:44.547Z,12.27
2023-04-19T01:23:12.695Z,10.85
2023-04-19T01:25:40.485Z,12.35
2023-04-19T01:28:07.966Z,11.60
2023-04-19T01:30:37.192Z,11.02
2023-04-19T01:33:04.925Z,11.63
2023-04-19T01:35:32.462Z,11.40
2023-04-19T01:38:00.241Z,12.63
2023-04-19T01:40:29.129Z,11.98
2023-04-19T01:42:59.328Z,12.80
2023-04-19T01:45:27.267Z,12.20
2023-04-19T01:47:56.125Z,12.65
2023-04-19T01:50:23.685Z,12.73
2023-04-19T01:52:51.197Z,13.32
2023-04-19T01:55:20.441Z,12.52
2023-04-19T01:57:49.022Z,12.00
2023-04-19T02:00:18.525Z,12.30
2023-04-19T02:02:49.625Z,12.63
2023-04-19T02:05:19.436Z,12.35
2023-04-19T02:07:50.172Z,12.37
2023-04-19T02:10:19.528Z,13.23
2023-04-19T02:12:49.176Z,12.35
2023-04-19T02:15:17.303Z,12.38
2023-04-19T02:17:47.616Z,13.00
2023-04-19T02:20:15.918Z,12.23
2023-04-19T02:22:44.508Z,12.95
2023-04-19T02:25:12.880Z,12.35
2023-04-19T02:27:40.773Z,12.10
2023-04-19T02:30:09.033Z,13.05
2023-04-19T02:32:36.774Z,12.43
2023-04-19T02:37:34.714Z,12.20
2023-04-19T02:40:02.305Z,12.15
2023-04-19T02:42:30.163Z,12.95
2023-04-19T02:44:57.553Z,12.30
2023-04-19T02:47:25.646Z,11.82
2023-04-19T02:49:53.461Z,12.07
2023-04-19T02:52:21.296Z,12.02
2023-04-19T02:54:50.488Z,12.50
2023-04-19T02:57:18.604Z,12.05
2023-04-19T02:59:47.804Z,11.73
2023-04-19T03:02:18.817Z,12.05
2023-04-19T03:04:49.425Z,11.57
2023-04-19T03:07:18.447Z,12.18
2023-04-19T03:09:48.160Z,11.70
2023-04-19T03:12:17.529Z,11.38
2023-04-19T03:14:45.201Z,11.65
2023-04-19T03:17:12.893Z,10.63
2023-04-19T03:19:40.639Z,10.77
2023-04-19T03:22:08.262Z,10.80
2023-04-19T03:24:37.965Z,10.88
2023-04-19T03:27:18.635Z,11.20
2023-04-19T03:29:51.256Z,11.07
2023-04-19T03:32:19.551Z,10.90
2023-04-19T03:34:47.929Z,10.23
2023-04-19T03:37:17.751Z,10.00
2023-04-19T03:39:50.473Z,9.77
2023-04-19T03:42:26.959Z,11.23
2023-04-19T03:45:00.839Z,11.02
2023-04-19T03:47:31.134Z,9.97
2023-04-19T03:49:59.337Z,10.70
2023-04-19T03:52:28.604Z,10.80
2023-04-19T03:54:56.214Z,10.18
2023-04-19T03:57:34.011Z,9.68
2023-04-19T04:00:08.673Z,9.88
2023-04-19T04:02:42.417Z,9.98
2023-04-19T04:05:13.081Z,9.95
2023-04-19T04:07:42.284Z,9.20
2023-04-19T04:10:10.111Z,9.90
2023-04-19T04:12:42.715Z,9.27
2023-04-19T04:15:14.677Z,8.80
2023-04-19T04:17:52.128Z,8.95
2023-04-19T04:20:24.045Z,8.80
2023-04-19T04:23:01.602Z,8.35
2023-04-19T04:25:29.813Z,8.77
2023-04-19T04:28:01.052Z,8.55
2023-04-19T04:30:28.850Z,8.55
2023-04-19T04:32:59.248Z,8.80
2023-04-19T04:35:29.038Z,8.85
2023-04-19T04:38:17.619Z,9.50
2023-04-19T04:40:59.038Z,9.13
2023-04-19T04:43:29.965Z,8.50
2023-04-19T04:45:58.425Z,7.72
2023-04-19T04:48:31.616Z,8.50
2023-04-19T04:50:59.957Z,8.55
2023-04-19T04:53:29.237Z,7.40
2023-04-19T04:56:03.083Z,8.70
2023-04-19T04:58:32.203Z,8.27
2023-04-19T05:01:03.908Z,7.75
2023-04-19T05:03:36.492Z,8.55
2023-04-19T05:08:34.395Z,8.50
2023-04-19T05:11:25.163Z,8.45
2023-04-19T05:13:54.095Z,7.85
2023-04-19T05:16:21.980Z,8.40
2023-04-19T05:18:51.569Z,7.97
2023-04-19T05:21:21.210Z,8.27
2023-04-19T05:23:49.466Z,8.00
2023-04-19T05:26:18.404Z,7.95
2023-04-19T05:28:53.651Z,7.75
2023-04-19T05:31:49.871Z,7.93
2023-04-19T05:34:30.736Z,7.75
2023-04-19T05:37:00.152Z,7.75
2023-04-19T05:39:27.742Z,7.70
2023-04-19T05:41:55.430Z,7.22
2023-04-19T05:44:23.359Z,7.13
2023-04-19T05:46:53.425Z,7.80
2023-04-19T05:49:42.082Z,7.82
2023-04-19T05:52:22.290Z,7.25
2023-04-19T05:54:54.639Z,6.50
2023-04-19T05:57:24.465Z,7.43
2023-04-19T05:59:57.949Z,7.05
2023-04-19T06:02:30.136Z,6.47
2023-04-19T06:05:02.500Z,6.78
2023-04-19T06:07:34.435Z,7.18
2023-04-19T06:10:08.356Z,6.72
2023-04-19T06:12:36.043Z,7.15
2023-04-19T06:15:03.938Z,6.30
2023-04-19T06:17:32.131Z,6.38
2023-04-19T06:20:04.990Z,6.50
2023-04-19T06:22:32.599Z,6.82
2023-04-19T06:25:04.295Z,6.25
2023-04-19T06:27:31.800Z,6.13
2023-04-19T06:30:01.175Z,6.15
2023-04-19T06:32:29.352Z,6.10
2023-04-19T06:34:57.066Z,5.78
2023-04-19T06:37:24.812Z,6.22
2023-04-19T06:39:53.090Z,6.07
2023-04-19T06:42:21.033Z,6.18
2023-04-19T06:44:51.729Z,5.78
2023-04-19T06:47:19.996Z,6.35
2023-04-19T06:49:49.162Z,5.35
2023-04-19T06:52:18.767Z,5.82
2023-04-19T06:54:49.951Z,6.03
2023-04-19T06:57:18.580Z,5.78
2023-04-19T06:59:47.102Z,5.70
2023-04-19T07:02:15.214Z,6.10
2023-04-19T07:04:43.011Z,5.72
2023-04-19T07:07:10.873Z,6.47
2023-04-19T07:09:38.613Z,5.38
2023-04-19T07:12:07.054Z,5.50
2023-04-19T07:14:34.577Z,5.32
2023-04-19T07:17:02.531Z,5.97
2023-04-19T07:19:30.207Z,5.60
2023-04-19T07:21:57.968Z,5.25
2023-04-19T07:24:28.364Z,5.20
2023-04-19T07:26:56.275Z,5.68
2023-04-19T07:29:24.007Z,4.90
2023-04-19T07:31:55.845Z,4.40
2023-04-19T07:34:24.194Z,4.65
2023-04-19T07:36:52.255Z,4.68
2023-04-19T07:39:20.033Z,4.45
2023-04-19T07:41:51.672Z,4.00
2023-04-19T07:44:19.747Z,3.83
2023-04-19T07:46:49.326Z,4.53
2023-04-19T07:49:19.922Z,4.10
2023-04-19T07:51:48.805Z,4.50
2023-04-19T07:54:18.668Z,3.55
2023-04-19T07:56:48.537Z,3.70
2023-04-19T07:59:16.459Z,3.88
2023-04-19T08:01:49.717Z,4.22
2023-04-19T08:04:21.284Z,3.47
2023-04-19T08:06:49.528Z,4.28
2023-04-19T08:09:18.311Z,3.63
2023-04-19T08:11:47.590Z,3.70
2023-04-19T08:14:22.225Z,3.60
2023-04-19T08:19:31.072Z,3.63
2023-04-19T08:21:58.600Z,3.22
2023-04-19T08:24:26.274Z,4.80
2023-04-19T08:26:54.837Z,3.33
2023-04-19T08:29:22.572Z,2.97
2023-04-19T08:31:50.702Z,3.63
2023-04-19T08:34:22.085Z,3.72
2023-04-19T08:36:59.959Z,3.38
2023-04-19T08:39:32.936Z,3.42
2023-04-19T08:42:10.496Z,3.00
2023-04-19T08:47:30.180Z,3.10
2023-04-19T08:50:14.085Z,3.50
2023-04-19T08:52:55.968Z,3.42
2023-04-19T08:55:30.062Z,3.05
2023-04-19T08:57:58.763Z,3.10
2023-04-19T09:00:26.367Z,3.03
2023-04-19T09:02:58.749Z,2.80
2023-04-19T09:05:27.306Z,3.10
2023-04-19T09:07:55.128Z,2.72
2023-04-19T09:10:23.079Z,2.80
2023-04-19T09:13:04.571Z,2.25
2023-04-19T09:15:39.378Z,2.63
2023-04-19T09:18:10.025Z,2.50
2023-04-19T09:20:38.951Z,2.65
2023-04-19T09:23:10.456Z,2.10
2023-04-19T09:25:52.933Z,2.40
2023-04-19T09:28:25.543Z,2.30
2023-04-19T09:33:34.444Z,2.15
2023-04-19T09:36:02.208Z,2.22
2023-04-19T09:38:30.287Z,1.88
2023-04-19T09:41:08.576Z,2.78
2023-04-19T09:44:01.523Z,1.90
2023-04-19T09:46:32.461Z,1.95
2023-04-19T09:49:33.677Z,1.63
2023-04-19T09:52:11.762Z,1.40
2023-04-19T09:54:40.091Z,1.80
2023-04-19T09:57:09.712Z,1.70
2023-04-19T09:59:38.142Z,2.20
2023-04-19T10:02:06.054Z,1.70
2023-04-19T10:04:54.490Z,1.75
2023-04-19T10:07:30.231Z,1.98
2023-04-19T10:12:52.264Z,2.13
2023-04-19T10:15:22.849Z,1.90
2023-04-19T10:17:51.761Z,2.13
2023-04-19T10:20:32.692Z,2.25
2023-04-19T10:23:00.809Z,1.92
2023-04-19T10:25:31.505Z,1.63
2023-04-19T10:27:59.136Z,1.58
2023-04-19T10:30:27.380Z,1.70
2023-04-19T10:32:59.521Z,1.90
2023-04-19T10:35:31.655Z,1.90
2023-04-19T10:38:06.579Z,2.10
2023-04-19T10:40:56.418Z,1.92
2023-04-19T10:43:25.245Z,1.95
2023-04-19T10:45:53.196Z,1.77
2023-04-19T10:48:33.643Z,2.00
2023-04-19T10:51:05.554Z,1.95
2023-04-19T10:53:51.735Z,2.28
2023-04-19T10:56:21.344Z,1.90
2023-04-19T10:59:15.326Z,1.73
2023-04-19T11:01:43.590Z,1.70
2023-04-19T11:04:19.163Z,2.15
2023-04-19T11:06:53.709Z,1.88
2023-04-19T11:09:25.246Z,1.95
2023-04-19T11:11:54.295Z,1.73
2023-04-19T11:14:22.219Z,1.67
2023-04-19T11:16:50.143Z,1.95
2023-04-19T11:19:21.574Z,1.77
2023-04-19T11:21:50.123Z,2.38
2023-04-19T11:24:21.602Z,1.75
2023-04-19T11:26:49.469Z,3.17
2023-04-19T11:29:24.214Z,2.22
2023-04-19T11:31:52.197Z,1.98
2023-04-19T11:34:23.480Z,1.75
2023-04-19T11:36:54.640Z,1.90
2023-04-19T11:39:22.631Z,1.67
2023-04-19T11:41:50.287Z,1.60
2023-04-19T11:44:22.246Z,2.05
2023-04-19T11:47:03.374Z,1.67
2023-04-19T11:49:34.904Z,2.17
2023-04-19T11:52:05.545Z,2.22
2023-04-19T11:54:34.015Z,2.00
2023-04-19T11:57:05.628Z,2.17
2023-04-19T11:59:35.008Z,2.10
2023-04-19T12:02:12.939Z,2.03
2023-04-19T12:04:42.825Z,2.10
2023-04-19T12:07:11.255Z,2.20
2023-04-19T12:09:40.394Z,2.08
2023-04-19T12:12:08.214Z,2.20
2023-04-19T12:14:36.463Z,1.83
2023-04-19T12:17:08.461Z,2.15
2023-04-19T12:19:37.471Z,1.88
2023-04-19T12:22:14.645Z,1.90
2023-04-19T12:24:44.981Z,1.73
2023-04-19T12:29:40.333Z,2.28
2023-04-19T12:32:08.300Z,2.10
2023-04-19T12:34:36.038Z,1.70
2023-04-19T12:37:05.042Z,2.13
2023-04-19T12:39:32.865Z,1.88
2023-04-19T12:42:01.322Z,2.15
2023-04-19T12:44:32.173Z,1.98
2023-04-19T12:46:59.783Z,2.22
2023-04-19T12:49:27.906Z,2.40
2023-04-19T12:51:57.565Z,2.35
2023-04-19T12:54:25.865Z,1.98
2023-04-19T12:56:53.742Z,1.75
2023-04-19T12:59:22.467Z,2.00
2023-04-19T13:01:50.478Z,2.13
2023-04-19T13:04:21.933Z,2.08
2023-04-19T13:06:50.895Z,2.08
2023-04-19T13:09:20.181Z,2.05
2023-04-19T13:11:51.118Z,2.55
2023-04-19T13:14:20.410Z,2.55
2023-04-19T13:16:51.392Z,2.60
2023-04-19T13:19:22.098Z,2.28
2023-04-19T13:21:49.770Z,2.78
2023-04-19T13:24:21.573Z,2.70
2023-04-19T13:26:50.337Z,2.33
2023-04-19T13:29:18.791Z,2.60
2023-04-19T13:31:47.651Z,2.78
2023-04-19T13:34:15.913Z,3.20
2023-04-19T13:36:45.340Z,2.85
2023-04-19T13:39:12.860Z,2.63
2023-04-19T13:41:41.040Z,2.42
2023-04-19T13:44:08.724Z,2.45
2023-04-19T13:46:36.347Z,2.72
2023-04-19T13:49:03.878Z,2.83
2023-04-19T13:51:46.543Z,3.08
2023-04-19T13:54:19.592Z,2.90
2023-04-19T13:56:51.353Z,3.13
2023-04-19T13:59:26.509Z,3.10
2023-04-19T14:01:56.311Z,2.97
2023-04-19T14:04:24.892Z,2.72
2023-04-19T14:06:52.956Z,2.28
2023-04-19T14:09:20.563Z,2.95
2023-04-19T14:11:49.559Z,2.47
2023-04-19T14:14:18.907Z,2.75
2023-04-19T14:16:47.867Z,2.58
2023-04-19T14:19:16.253Z,2.55
2023-04-19T14:21:45.247Z,2.27
2023-04-19T14:24:12.785Z,3.05
2023-04-19T14:26:40.517Z,2.80
2023-04-19T14:29:09.819Z,2.47
2023-04-19T14:31:37.966Z,2.75
2023-04-19T14:34:05.653Z,2.40
2023-04-19T14:36:33.707Z,2.53
2023-04-19T14:39:01.329Z,2.80
2023-04-19T14:41:29.387Z,2.65
2023-04-19T14:43:57.049Z,2.45
2023-04-19T14:46:25.043Z,2.95
2023-04-19T14:48:53.927Z,2.75
2023-04-19T14:51:26.454Z,2.92
2023-04-19T14:53:54.520Z,2.70
2023-04-19T14:56:22.263Z,3.20
2023-04-19T14:58:51.402Z,3.20
2023-04-19T15:01:22.982Z,3.15
2023-04-19T15:03:51.313Z,2.65
2023-04-19T15:06:22.473Z,2.60
2023-04-19T15:08:50.205Z,2.65
2023-04-19T15:11:18.480Z,2.60
2023-04-19T15:13:47.178Z,2.78
2023-04-19T15:16:15.058Z,2.97
2023-04-19T15:18:43.319Z,2.70
2023-04-19T15:21:10.884Z,3.65
2023-04-19T15:23:38.611Z,3.88
2023-04-19T15:26:06.161Z,3.22
2023-04-19T15:28:38.605Z,3.13
2023-04-19T15:31:07.792Z,2.78
2023-04-19T15:33:36.536Z,3.22
2023-04-19T15:36:04.871Z,3.20
2023-04-19T15:38:37.046Z,3.05
2023-04-19T15:41:05.857Z,3.33
2023-04-19T15:43:34.358Z,3.30
2023-04-19T15:46:02.111Z,3.15
2023-04-19T15:48:30.000Z,3.47
2023-04-19T15:50:57.826Z,3.35
2023-04-19T15:53:26.272Z,3.30
2023-04-19T15:55:56.082Z,3.15
2023-04-19T15:58:24.284Z,3.67
2023-04-19T16:00:52.097Z,3.10
2023-04-19T16:03:20.105Z,3.58
2023-04-19T16:05:52.225Z,3.40
2023-04-19T16:08:20.719Z,3.30
2023-04-19T16:10:50.397Z,3.00
2023-04-19T16:13:19.890Z,3.03
2023-04-19T16:15:48.328Z,3.67
2023-04-19T16:18:17.632Z,2.88
2023-04-19T16:20:45.809Z,3.20
2023-04-19T16:23:14.875Z,3.15
2023-04-19T16:25:43.342Z,2.78
2023-04-19T16:28:11.108Z,2.38
2023-04-19T16:30:39.330Z,2.60
2023-04-19T16:33:07.694Z,3.30
2023-04-19T16:35:35.780Z,2.40
2023-04-19T16:38:04.655Z,2.35
2023-04-19T16:40:32.401Z,2.72
2023-04-19T16:42:59.965Z,2.85
2023-04-19T16:45:30.123Z,2.85
2023-04-19T16:47:57.813Z,3.03
2023-04-19T16:50:25.572Z,2.70
2023-04-19T16:52:53.368Z,2.50
2023-04-19T16:55:21.729Z,2.50
2023-04-19T16:57:53.766Z,2.88
2023-04-19T17:00:22.342Z,2.53
2023-04-19T17:02:50.009Z,2.70
2023-04-19T17:05:21.141Z,2.38
2023-04-19T17:07:49.263Z,2.47
2023-04-19T17:10:17.323Z,2.25
2023-04-19T17:12:45.174Z,2.50
2023-04-19T17:15:13.061Z,2.10
2023-04-19T17:17:43.420Z,2.55
2023-04-19T17:20:11.932Z,2.50
2023-04-19T17:22:39.724Z,2.25
2023-04-19T17:25:07.459Z,2.40
2023-04-19T17:27:35.386Z,2.20
2023-04-19T17:30:03.488Z,2.35
2023-04-19T17:32:31.390Z,2.50
2023-04-19T17:34:59.248Z,2.20
2023-04-19T17:37:27.155Z,2.00
2023-04-19T17:39:55.179Z,1.98
2023-04-19T17:42:23.082Z,1.88
2023-04-19T17:44:51.663Z,1.90
2023-04-19T17:47:21.216Z,1.88
2023-04-19T17:49:51.583Z,2.35
2023-04-19T17:52:19.729Z,1.85
2023-04-19T17:54:49.762Z,1.80
2023-04-19T17:57:19.318Z,2.20
2023-04-19T17:59:50.264Z,2.03
2023-04-19T18:02:19.005Z,1.88
2023-04-19T18:04:50.907Z,1.73
2023-04-19T18:07:20.180Z,2.03
2023-04-19T18:09:50.094Z,2.00
2023-04-19T18:12:21.642Z,2.30
2023-04-19T18:14:49.866Z,2.30
2023-04-19T18:17:18.987Z,2.20
2023-04-19T18:19:47.588Z,2.65
2023-04-19T18:22:15.642Z,2.65
2023-04-19T18:24:46.347Z,2.40
2023-04-19T18:27:14.998Z,2.20
2023-04-19T18:29:43.166Z,2.20
2023-04-19T18:32:10.912Z,2.05
2023-04-19T18:34:39.506Z,2.30
2023-04-19T18:37:14.776Z,2.55
2023-04-19T18:39:42.439Z,2.58
2023-04-19T18:42:10.161Z,2.53
2023-04-19T18:44:53.028Z,2.47
2023-04-19T18:47:21.936Z,2.20
2023-04-19T18:50:03.742Z,2.67
2023-04-19T18:52:33.581Z,2.50
2023-04-19T18:55:08.118Z,2.63
2023-04-19T18:57:41.184Z,2.90
2023-04-19T19:00:12.743Z,2.45
2023-04-19T19:02:41.384Z,3.00
2023-04-19T19:05:09.917Z,2.30
2023-04-19T19:07:38.229Z,2.80
2023-04-19T19:10:18.660Z,3.28
2023-04-19T19:12:50.252Z,2.72
2023-04-19T19:15:18.888Z,2.47
2023-04-19T19:17:50.751Z,2.70
2023-04-19T19:20:20.677Z,2.97
2023-04-19T19:22:51.336Z,3.05
2023-04-19T19:25:19.805Z,2.70
2023-04-19T19:28:05.355Z,2.90
2023-04-19T19:30:34.776Z,3.20
2023-04-19T19:33:05.120Z,3.25
2023-04-19T19:35:32.956Z,3.33
2023-04-19T19:38:01.189Z,3.63
2023-04-19T19:40:32.451Z,3.38
2023-04-19T19:43:01.374Z,3.00
2023-04-19T19:45:31.308Z,3.42
2023-04-19T19:48:00.684Z,4.00
2023-04-19T19:53:02.231Z,3.75
2023-04-19T19:55:30.614Z,3.10
2023-04-19T20:03:03.493Z,4.00
2023-04-19T20:05:32.335Z,3.25
2023-04-19T20:08:08.685Z,3.17
2023-04-19T20:10:37.693Z,3.28
2023-04-19T20:13:08.414Z,3.17
2023-04-19T20:15:37.261Z,3.53
2023-04-19T20:18:06.062Z,3.40
2023-04-19T20:20:33.963Z,3.33
2023-04-19T20:23:01.425Z,3.42
2023-04-19T20:25:32.713Z,3.30
2023-04-19T20:28:00.954Z,3.38
2023-04-19T20:30:28.826Z,3.33
2023-04-19T20:32:56.984Z,3.47
2023-04-19T20:35:27.430Z,3.47
2023-04-19T20:38:02.996Z,3.08
2023-04-19T20:40:32.388Z,3.28
2023-04-19T20:43:00.279Z,3.35
2023-04-19T20:45:28.039Z,3.00
2023-04-19T20:47:56.064Z,3.40
2023-04-19T20:50:23.922Z,4.15
2023-04-19T20:52:52.426Z,3.58
2023-04-19T20:55:20.052Z,3.10
2023-04-19T20:57:48.764Z,3.60
2023-04-19T21:00:17.052Z,3.45
2023-04-19T21:02:45.445Z,3.08
2023-04-19T21:05:13.026Z,3.33
2023-04-19T21:07:40.995Z,3.50
2023-04-19T21:10:09.668Z,3.28
2023-04-19T21:12:37.275Z,3.58
2023-04-19T21:15:06.712Z,3.20
2023-04-19T21:17:34.378Z,3.10
2023-04-19T21:20:03.443Z,2.88
2023-04-19T21:22:35.540Z,3.15
2023-04-19T21:25:03.243Z,2.85
2023-04-19T21:27:34.331Z,3.10
2023-04-19T21:30:02.417Z,2.90
2023-04-19T21:32:30.399Z,2.95
2023-04-19T21:34:57.868Z,2.78
2023-04-19T21:37:25.420Z,3.30
2023-04-19T21:39:52.988Z,2.97
2023-04-19T21:42:20.882Z,3.20
2023-04-19T21:44:49.548Z,3.20
2023-04-19T21:47:17.543Z,2.92
2023-04-19T21:49:48.429Z,3.00
2023-04-19T21:54:44.634Z,2.85
2023-04-19T21:57:12.963Z,2.70
2023-04-19T21:59:40.985Z,3.08
2023-04-19T22:02:09.159Z,3.00
2023-04-19T22:04:39.746Z,2.92
2023-04-19T22:09:35.410Z,2.88
2023-04-19T22:12:04.465Z,2.67
2023-04-19T22:14:32.011Z,2.95
2023-04-19T22:17:03.279Z,2.67
2023-04-19T22:19:31.832Z,2.83
2023-04-19T22:21:59.338Z,3.17
2023-04-19T22:24:26.961Z,2.83
2023-04-19T22:26:54.618Z,3.00
2023-04-19T22:29:22.231Z,2.50
2023-04-19T22:31:49.783Z,2.80
2023-04-19T22:34:18.541Z,3.17
2023-04-19T22:36:48.502Z,2.35
2023-04-19T22:39:18.823Z,2.95
2023-04-19T22:44:15.773Z,2.70
2023-04-19T22:46:44.562Z,3.35
2023-04-19T22:49:12.514Z,2.70
2023-04-19T22:51:42.682Z,2.72
2023-04-19T22:54:10.302Z,2.60
2023-04-19T22:56:38.259Z,2.85
2023-04-19T22:59:08.532Z,2.88
2023-04-19T23:01:36.512Z,2.58
2023-04-19T23:04:05.552Z,3.22
2023-04-19T23:06:33.293Z,2.70
2023-04-19T23:09:01.632Z,2.97
2023-04-19T23:11:29.974Z,2.58
2023-04-19T23:13:58.837Z,2.97
2023-04-19T23:16:26.877Z,2.65
2023-04-19T23:18:55.657Z,2.35
2023-04-19T23:21:24.715Z,2.50
2023-04-19T23:23:52.652Z,2.35
2023-04-19T23:26:20.251Z,2.95
2023-04-19T23:28:48.436Z,2.63
2023-04-19T23:31:18.770Z,2.30
2023-04-19T23:33:47.365Z,2.58
2023-04-19T23:36:14.787Z,3.00
2023-04-19T23:38:42.288Z,2.30
2023-04-19T23:41:13.337Z,2.97
2023-04-19T23:43:41.105Z,2.63
2023-04-19T23:46:08.934Z,2.75
2023-04-19T23:48:36.977Z,2.88
2023-04-19T23:51:04.656Z,2.25
2023-04-19T23:53:32.231Z,2.78
2023-04-19T23:56:00.286Z,2.25
2023-04-19T23:58:27.899Z,2.28
